HomeShort term forecast

Short term forecast

Graphical weather forecast for the next 48 hours for Montreal:

Short term forecast

This weather forecast is automatically refreshed every 3 hours.

Hourly Experimental Forecast for the next 48 hours

Overall summary: Clear throughout the day.

 Date & Hour   Temp   Feel   Baro   Hum   Speed & Bearing   Wind Gust   Precip.%   Precip.   Visibility   Cloud cover   Conditions 
 14/07/2020 - 06:00  17.7°C  17.8°C  1013.6 hPa  89%  14.0 km/h   30.4 km/h  10%  0.03 mm/h  16.1km  64%  Mostly Cloudy 
 14/07/2020 - 07:00  18.5°C  18.6°C  1014.4 hPa  87%  15.5 km/h   30.6 km/h  9%  0.08 mm/h  16.1km  53%  Partly Cloudy 
 14/07/2020 - 08:00  19.5°C  19.7°C  1015.0 hPa  84%  16.1 km/h   29.3 km/h  5%  0.07 mm/h  16.1km  43%  Partly Cloudy 
 14/07/2020 - 09:00  20.6°C  20.8°C  1015.5 hPa  80%  16.8 km/h   28.8 km/h  5%  0.06 mm/h  16.1km  44%  Partly Cloudy 
 14/07/2020 - 10:00  21.5°C  21.7°C  1016.0 hPa  76%  17.1 km/h   27.1 km/h  2%  0.03 mm/h  16.1km  46%  Partly Cloudy 
 14/07/2020 - 11:00  22.3°C  22.4°C  1016.4 hPa  71%  17.5 km/h   26.2 km/h  3%  0.04 mm/h  16.1km  50%  Partly Cloudy 
 14/07/2020 - 12:00  23.0°C  23.1°C  1016.8 hPa  66%  17.7 km/h   25.2 km/h  2%  0.04 mm/h  16.1km  43%  Partly Cloudy 
 14/07/2020 - 13:00  23.7°C  23.8°C  1016.9 hPa  62%  18.2 km/h   24.9 km/h  1%  0.04 mm/h  16.1km  39%  Partly Cloudy 
 14/07/2020 - 14:00  24.3°C  24.3°C  1016.7 hPa  59%  18.8 km/h   25.3 km/h  0%  --  16.1km  35%  Partly Cloudy 
 14/07/2020 - 15:00  24.8°C  24.8°C  1017.0 hPa  56%  19.0 km/h   25.2 km/h  0%  --  16.1km  26%  Clear 
 14/07/2020 - 16:00  25.2°C  25.2°C  1017.2 hPa  55%  19.0 km/h   24.2 km/h  0%  --  16.1km  21%  Clear 
 14/07/2020 - 17:00  25.2°C  25.2°C  1017.7 hPa  53%  18.6 km/h   24.1 km/h  1%  0.01 mm/h  16.1km  5%  Clear 
 14/07/2020 - 18:00  24.9°C  24.9°C  1017.8 hPa  54%  17.6 km/h   23.8 km/h  0%  --  16.1km  3%  Clear 
 14/07/2020 - 19:00  24.3°C  24.3°C  1018.1 hPa  56%  16.2 km/h   23.9 km/h  0%  --  16.1km  4%  Clear 
 14/07/2020 - 20:00  23.2°C  23.2°C  1018.7 hPa  59%  15.0 km/h   24.8 km/h  0%  --  16.1km  4%  Clear 
 14/07/2020 - 21:00  21.9°C  21.9°C  1019.4 hPa  63%  14.3 km/h   26.0 km/h  0%  --  16.1km  6%  Clear 
 14/07/2020 - 22:00  20.5°C  20.5°C  1020.2 hPa  68%  13.7 km/h   27.4 km/h  0%  --  16.1km  9%  Clear 
 14/07/2020 - 23:00  19.2°C  19.2°C  1020.9 hPa  71%  13.3 km/h   28.3 km/h  0%  --  16.1km  12%  Clear 
 15/07/2020 - 00:00  18.3°C  18.3°C  1021.3 hPa  73%  13.1 km/h   27.9 km/h  0%  --  16.1km  14%  Clear 
 15/07/2020 - 01:00  17.5°C  17.5°C  1021.6 hPa  74%  13.1 km/h   27.0 km/h  0%  --  16.1km  15%  Clear 
 15/07/2020 - 02:00  16.8°C  16.8°C  1021.7 hPa  75%  13.0 km/h   25.8 km/h  0%  --  16.1km  14%  Clear 
 15/07/2020 - 03:00  15.9°C  15.9°C  1022.0 hPa  76%  12.8 km/h   24.2 km/h  0%  --  16.1km  10%  Clear 
 15/07/2020 - 04:00  15.0°C  15.0°C  1022.2 hPa  79%  12.5 km/h   22.2 km/h  0%  --  16.1km  4%  Clear 
 15/07/2020 - 05:00  14.6°C  14.6°C  1022.5 hPa  80%  12.4 km/h   20.7 km/h  0%  --  16.1km  0%  Clear 
 15/07/2020 - 06:00  15.0°C  15.0°C  1023.0 hPa  78%  12.5 km/h   20.0 km/h  0%  --  16.1km  0%  Clear 
 15/07/2020 - 07:00  16.0°C  16.0°C  1023.2 hPa  76%  12.7 km/h   19.7 km/h  0%  --  16.1km  0%  Clear 
 15/07/2020 - 08:00  17.4°C  17.4°C  1023.7 hPa  73%  12.6 km/h   19.3 km/h  0%  --  16.1km  0%  Clear 
 15/07/2020 - 09:00  19.1°C  19.1°C  1023.7 hPa  71%  12.3 km/h   18.9 km/h  0%  --  16.1km  1%  Clear 
 15/07/2020 - 10:00  20.9°C  20.9°C  1023.5 hPa  68%  11.9 km/h   18.3 km/h  0%  --  16.1km  1%  Clear 
 15/07/2020 - 11:00  22.4°C  22.4°C  1023.3 hPa  65%  11.4 km/h   17.3 km/h  0%  --  16.1km  2%  Clear 
 15/07/2020 - 12:00  23.5°C  23.6°C  1023.1 hPa  61%  10.9 km/h   15.7 km/h  0%  --  16.1km  3%  Clear 
 15/07/2020 - 13:00  24.5°C  24.6°C  1023.0 hPa  58%  10.4 km/h   13.8 km/h  0%  --  16.1km  5%  Clear 
 15/07/2020 - 14:00  25.6°C  25.7°C  1022.8 hPa  54%  9.9 km/h   11.8 km/h  0%  --  16.1km  10%  Clear 
 15/07/2020 - 15:00  26.4°C  26.5°C  1022.6 hPa  52%  9.2 km/h   9.7 km/h  0%  --  16.1km  19%  Clear 
 15/07/2020 - 16:00  27.0°C  27.5°C  1022.7 hPa  51%  8.3 km/h   8.3 km/h  1%  0.01 mm/h  16.1km  30%  Clear 
 15/07/2020 - 17:00  26.9°C  27.4°C  1022.6 hPa  51%  7.9 km/h   7.9 km/h  1%  0.02 mm/h  16.1km  39%  Partly Cloudy 
 15/07/2020 - 18:00  26.4°C  26.5°C  1022.6 hPa  53%  8.3 km/h   8.4 km/h  1%  0.01 mm/h  16.1km  45%  Partly Cloudy 
 15/07/2020 - 19:00  25.6°C  25.6°C  1022.5 hPa  56%  9.1 km/h   10.7 km/h  0%  --  16.1km  50%  Partly Cloudy 
 15/07/2020 - 20:00  24.6°C  24.7°C  1022.6 hPa  59%  9.5 km/h   12.6 km/h  0%  --  16.1km  51%  Partly Cloudy 
 15/07/2020 - 21:00  23.5°C  23.6°C  1022.7 hPa  65%  9.2 km/h   13.6 km/h  0%  --  16.1km  46%  Partly Cloudy 
 15/07/2020 - 22:00  22.2°C  22.3°C  1022.8 hPa  70%  8.7 km/h   14.3 km/h  0%  --  16.1km  39%  Partly Cloudy 
 15/07/2020 - 23:00  21.1°C  21.2°C  1022.9 hPa  74%  8.4 km/h   14.9 km/h  1%  0.01 mm/h  16.1km  34%  Partly Cloudy 
 16/07/2020 - 00:00  20.3°C  20.4°C  1022.9 hPa  76%  8.6 km/h   15.0 km/h  1%  0.01 mm/h  16.1km  37%  Partly Cloudy 
 16/07/2020 - 01:00  19.7°C  19.8°C  1022.9 hPa  77%  9.0 km/h   15.0 km/h  1%  0.01 mm/h  16.1km  42%  Partly Cloudy 
 16/07/2020 - 02:00  19.1°C  19.2°C  1022.8 hPa  79%  9.5 km/h   15.2 km/h  1%  0.01 mm/h  16.1km  48%  Partly Cloudy 
 16/07/2020 - 03:00  18.6°C  18.7°C  1022.6 hPa  81%  10.1 km/h   15.7 km/h  0%  --  16.1km  52%  Partly Cloudy 
 16/07/2020 - 04:00  18.3°C  18.4°C  1022.4 hPa  84%  10.7 km/h   16.3 km/h  0%  --  16.1km  56%  Partly Cloudy 
 16/07/2020 - 05:00  18.5°C  18.6°C  1022.2 hPa  85%  11.5 km/h   17.6 km/h  0%  --  16.1km  59%  Partly Cloudy 

 

Past weather and reports

Past weatherFind in this section the past weather conditions, weather archive, graphics, reports and statistics.

Current conditions

Current weather condition for MontrealAll you need to know about the current weather conditions for Montreal. Weather data is updated every 10 minutes.

Weather forecast

Current Montreal weatherSince 2004, celinium.com website has provided accurate weather forecast for Montreal's island.